Redmond, OR

8:17 AM PDT on March 24, 2017 (GMT -0700)
Budget Storage of Redmond - Weather | | Change Station

Elev 3027 ft 44.26 °N, 121.18 °W | Updated 4 seconds ago

Overcast
Overcast
43.0 °F
Feels Like 43 °F
N
0.0
Wind Variable Wind from South
Gusts 0.0 mph

Today
High -- | Low -- °F
--% Chance of Precip.
Yesterday
High -- | Low -- °F
Precip. -- in
Pressure 29.81 in
Visibility 10.0 miles
Clouds Mostly Cloudy 3700 ft
Overcast 10000 ft
Windchill 43 °F
Dew Point 34 °F
Humidity 71%
Rainfall 0.00 in
Snow Depth Not available.
6:59 AM 7:22 PM
Waning Crescent, 14% visible
METAR KRDM 241456Z 16012KT 10SM BKN037 OVC100 07/M01 A2982 RMK AO2 SLP093 T00671006 56006
Pressure 29.81 in
Visibility 10.0 miles
Clouds Mostly Cloudy 3700 ft
Overcast 10000 ft
Windchill 43 °F
Dew Point 34 °F
Humidity 71%
Rainfall 0.00 in
Snow Depth Not available.
6:59 AM 7:22 PM
Waning Crescent, 14% visible
METAR KRDM 241456Z 16012KT 10SM BKN037 OVC100 07/M01 A2982 RMK AO2 SLP093 T00671006 56006

Get Severe Weather Alerts

Thanks for signing up!

Be on the lookout for a verification email in your inbox.

You'll start receiving the daily forecast at 8 AM.

×

10-Day Weather Forecast

Almanac

Astronomy

Mar. 24, 2017 Rise Set
Actual Time
Civil Twilight
Nautical Twilight
Astronomical Twilight
Moon
Length of Visible Light
Length of Day
Tomorrow will be .
, % of the Moon is Illuminated

Today's Extremes

State Highs State Lows

Community

WunderPhotos

Upload Photos

1,962,540 photos uploaded!

WunderBlog® & News

Nearby

Air Quality

  Air Quality AQ Index Pollutant
Not available.

Snow Depth

Station Depth Elevation

Earthquake Activity

City Distance Mag. Time & Date
Minimum magnitude displayed is 2.5.

Earthquake Activity

City Distance Mag. Time & Date
Minimum magnitude displayed is 2.5.

Coastal Water Temperatures

Place Temperature

Stations

Nearby Weather Stations

Station Location Temp. Windchill Dew Point Humidity Wind Precip. Elev Updated Type
                   

Watches & Warnings

There are currently no watches in effect.